sensor_id;sensor_type;location;lat;lon;timestamp;P1;durP1;ratioP1;P2;durP2;ratioP2
18931;SDS011;9598;50.954;3.112;2023-07-08T00:03:06;8.13;;;7.30;;
18931;SDS011;9598;50.954;3.112;2023-07-08T00:08:08;8.10;;;6.88;;
18931;SDS011;9598;50.954;3.112;2023-07-08T00:13:14;8.75;;;7.10;;
18931;SDS011;9598;50.954;3.112;2023-07-08T00:18:16;8.02;;;7.22;;
18931;SDS011;9598;50.954;3.112;2023-07-08T00:23:19;8.90;;;6.88;;
18931;SDS011;9598;50.954;3.112;2023-07-08T00:28:23;8.88;;;6.93;;
18931;SDS011;9598;50.954;3.112;2023-07-08T00:33:25;8.30;;;7.25;;
18931;SDS011;9598;50.954;3.112;2023-07-08T00:38:27;8.00;;;7.03;;
18931;SDS011;9598;50.954;3.112;2023-07-08T00:43:35;7.55;;;6.80;;
18931;SDS011;9598;50.954;3.112;2023-07-08T00:48:39;8.57;;;7.32;;
18931;SDS011;9598;50.954;3.112;2023-07-08T00:53:42;10.80;;;7.93;;
18931;SDS011;9598;50.954;3.112;2023-07-08T00:58:46;10.40;;;7.93;;
18931;SDS011;9598;50.954;3.112;2023-07-08T01:03:52;8.68;;;7.35;;
18931;SDS011;9598;50.954;3.112;2023-07-08T01:08:58;8.25;;;7.45;;
18931;SDS011;9598;50.954;3.112;2023-07-08T01:14:04;9.60;;;7.90;;
18931;SDS011;9598;50.954;3.112;2023-07-08T01:19:09;10.05;;;8.20;;
18931;SDS011;9598;50.954;3.112;2023-07-08T01:24:18;8.70;;;7.80;;
18931;SDS011;9598;50.954;3.112;2023-07-08T01:29:20;10.10;;;7.63;;
18931;SDS011;9598;50.954;3.112;2023-07-08T01:34:23;9.52;;;7.63;;
18931;SDS011;9598;50.954;3.112;2023-07-08T01:39:27;8.57;;;7.38;;
18931;SDS011;9598;50.954;3.112;2023-07-08T01:44:31;8.00;;;6.75;;
18931;SDS011;9598;50.954;3.112;2023-07-08T01:49:35;8.82;;;7.32;;
18931;SDS011;9598;50.954;3.112;2023-07-08T01:54:41;8.55;;;7.72;;
18931;SDS011;9598;50.954;3.112;2023-07-08T01:59:43;9.10;;;8.20;;
18931;SDS011;9598;50.954;3.112;2023-07-08T02:04:45;10.93;;;8.85;;
18931;SDS011;9598;50.954;3.112;2023-07-08T02:09:49;10.13;;;8.60;;
18931;SDS011;9598;50.954;3.112;2023-07-08T02:14:51;11.13;;;9.18;;
18931;SDS011;9598;50.954;3.112;2023-07-08T02:19:53;10.80;;;8.73;;
18931;SDS011;9598;50.954;3.112;2023-07-08T02:24:56;12.20;;;8.73;;
18931;SDS011;9598;50.954;3.112;2023-07-08T02:29:58;11.02;;;9.90;;
18931;SDS011;9598;50.954;3.112;2023-07-08T02:35:00;10.90;;;9.35;;
18931;SDS011;9598;50.954;3.112;2023-07-08T02:40:05;11.00;;;9.70;;
18931;SDS011;9598;50.954;3.112;2023-07-08T02:45:09;10.68;;;9.57;;
18931;SDS011;9598;50.954;3.112;2023-07-08T02:50:12;13.38;;;9.52;;
18931;SDS011;9598;50.954;3.112;2023-07-08T02:55:16;10.93;;;9.43;;
18931;SDS011;9598;50.954;3.112;2023-07-08T03:00:18;10.15;;;8.52;;
18931;SDS011;9598;50.954;3.112;2023-07-08T03:05:20;10.98;;;9.18;;
18931;SDS011;9598;50.954;3.112;2023-07-08T03:10:23;12.02;;;9.80;;
18931;SDS011;9598;50.954;3.112;2023-07-08T03:15:25;10.65;;;9.35;;
18931;SDS011;9598;50.954;3.112;2023-07-08T03:20:27;10.45;;;9.35;;
18931;SDS011;9598;50.954;3.112;2023-07-08T03:25:34;10.65;;;8.88;;
18931;SDS011;9598;50.954;3.112;2023-07-08T03:30:38;11.23;;;9.57;;
18931;SDS011;9598;50.954;3.112;2023-07-08T03:35:41;10.48;;;9.35;;
18931;SDS011;9598;50.954;3.112;2023-07-08T03:40:44;11.25;;;9.95;;
18931;SDS011;9598;50.954;3.112;2023-07-08T03:45:46;11.05;;;10.05;;
18931;SDS011;9598;50.954;3.112;2023-07-08T03:50:50;13.55;;;10.23;;
18931;SDS011;9598;50.954;3.112;2023-07-08T03:55:54;10.73;;;9.63;;
18931;SDS011;9598;50.954;3.112;2023-07-08T04:00:56;9.63;;;8.63;;
18931;SDS011;9598;50.954;3.112;2023-07-08T04:05:58;11.00;;;9.45;;
18931;SDS011;9598;50.954;3.112;2023-07-08T04:11:02;10.23;;;9.18;;
18931;SDS011;9598;50.954;3.112;2023-07-08T04:16:04;11.13;;;10.00;;
18931;SDS011;9598;50.954;3.112;2023-07-08T04:21:07;10.70;;;9.07;;
18931;SDS011;9598;50.954;3.112;2023-07-08T04:26:11;10.98;;;8.98;;
18931;SDS011;9598;50.954;3.112;2023-07-08T04:31:13;10.95;;;9.85;;
18931;SDS011;9598;50.954;3.112;2023-07-08T04:36:15;10.73;;;9.60;;
18931;SDS011;9598;50.954;3.112;2023-07-08T04:41:18;12.38;;;9.13;;
18931;SDS011;9598;50.954;3.112;2023-07-08T04:46:23;9.93;;;8.93;;
18931;SDS011;9598;50.954;3.112;2023-07-08T04:51:33;10.80;;;9.63;;
18931;SDS011;9598;50.954;3.112;2023-07-08T04:56:37;10.93;;;9.82;;
18931;SDS011;9598;50.954;3.112;2023-07-08T05:01:40;10.60;;;9.50;;
18931;SDS011;9598;50.954;3.112;2023-07-08T05:06:43;10.80;;;9.65;;
18931;SDS011;9598;50.954;3.112;2023-07-08T05:11:46;11.35;;;9.77;;
18931;SDS011;9598;50.954;3.112;2023-07-08T05:16:49;10.55;;;9.48;;
18931;SDS011;9598;50.954;3.112;2023-07-08T05:21:51;11.27;;;9.20;;
18931;SDS011;9598;50.954;3.112;2023-07-08T05:26:55;10.43;;;9.40;;
18931;SDS011;9598;50.954;3.112;2023-07-08T05:31:58;11.77;;;10.23;;
18931;SDS011;9598;50.954;3.112;2023-07-08T05:37:01;10.23;;;9.20;;
18931;SDS011;9598;50.954;3.112;2023-07-08T05:42:05;10.93;;;9.60;;
18931;SDS011;9598;50.954;3.112;2023-07-08T05:47:07;10.18;;;9.20;;
18931;SDS011;9598;50.954;3.112;2023-07-08T05:52:09;12.07;;;9.00;;
18931;SDS011;9598;50.954;3.112;2023-07-08T05:57:13;11.82;;;10.32;;
18931;SDS011;9598;50.954;3.112;2023-07-08T06:02:15;9.93;;;8.93;;
18931;SDS011;9598;50.954;3.112;2023-07-08T06:07:19;11.68;;;8.77;;
18931;SDS011;9598;50.954;3.112;2023-07-08T06:12:23;8.88;;;7.85;;
18931;SDS011;9598;50.954;3.112;2023-07-08T06:17:25;8.82;;;7.93;;
18931;SDS011;9598;50.954;3.112;2023-07-08T06:22:27;8.90;;;7.25;;
18931;SDS011;9598;50.954;3.112;2023-07-08T06:27:30;9.05;;;6.93;;
18931;SDS011;9598;50.954;3.112;2023-07-08T06:32:33;8.40;;;7.50;;
18931;SDS011;9598;50.954;3.112;2023-07-08T06:37:35;10.45;;;8.07;;
18931;SDS011;9598;50.954;3.112;2023-07-08T06:42:39;11.05;;;7.68;;
18931;SDS011;9598;50.954;3.112;2023-07-08T06:48:07;8.38;;;7.57;;
18931;SDS011;9598;50.954;3.112;2023-07-08T06:53:09;10.75;;;9.40;;
18931;SDS011;9598;50.954;3.112;2023-07-08T06:58:13;9.88;;;8.88;;
18931;SDS011;9598;50.954;3.112;2023-07-08T07:03:15;8.95;;;8.10;;
18931;SDS011;9598;50.954;3.112;2023-07-08T07:08:17;8.35;;;7.40;;
18931;SDS011;9598;50.954;3.112;2023-07-08T07:13:20;9.52;;;7.20;;
18931;SDS011;9598;50.954;3.112;2023-07-08T07:18:22;8.25;;;7.35;;
18931;SDS011;9598;50.954;3.112;2023-07-08T07:23:25;8.75;;;7.32;;
18931;SDS011;9598;50.954;3.112;2023-07-08T07:28:28;9.43;;;6.82;;
18931;SDS011;9598;50.954;3.112;2023-07-08T07:33:30;8.45;;;7.50;;
18931;SDS011;9598;50.954;3.112;2023-07-08T07:38:32;9.10;;;7.05;;
18931;SDS011;9598;50.954;3.112;2023-07-08T07:43:36;9.45;;;7.32;;
18931;SDS011;9598;50.954;3.112;2023-07-08T07:48:38;8.48;;;7.05;;
18931;SDS011;9598;50.954;3.112;2023-07-08T07:53:41;8.18;;;7.15;;
18931;SDS011;9598;50.954;3.112;2023-07-08T07:58:44;8.00;;;6.30;;
18931;SDS011;9598;50.954;3.112;2023-07-08T08:03:47;7.90;;;6.63;;
18931;SDS011;9598;50.954;3.112;2023-07-08T08:08:51;7.55;;;6.32;;
18931;SDS011;9598;50.954;3.112;2023-07-08T08:13:55;7.03;;;6.22;;
18931;SDS011;9598;50.954;3.112;2023-07-08T08:19:00;7.18;;;5.90;;
18931;SDS011;9598;50.954;3.112;2023-07-08T08:24:02;6.80;;;6.10;;
18931;SDS011;9598;50.954;3.112;2023-07-08T08:29:06;7.07;;;5.75;;
18931;SDS011;9598;50.954;3.112;2023-07-08T08:34:09;7.32;;;6.15;;
18931;SDS011;9598;50.954;3.112;2023-07-08T08:39:11;6.45;;;5.82;;
18931;SDS011;9598;50.954;3.112;2023-07-08T08:44:15;7.07;;;6.05;;
18931;SDS011;9598;50.954;3.112;2023-07-08T08:49:22;6.35;;;5.75;;
18931;SDS011;9598;50.954;3.112;2023-07-08T08:54:28;7.03;;;6.10;;
18931;SDS011;9598;50.954;3.112;2023-07-08T08:59:34;8.63;;;6.53;;
18931;SDS011;9598;50.954;3.112;2023-07-08T09:04:50;7.57;;;6.20;;
18931;SDS011;9598;50.954;3.112;2023-07-08T09:09:54;7.85;;;5.97;;
18931;SDS011;9598;50.954;3.112;2023-07-08T09:15:10;6.90;;;6.03;;
18931;SDS011;9598;50.954;3.112;2023-07-08T09:20:17;9.65;;;7.03;;
18931;SDS011;9598;50.954;3.112;2023-07-08T09:25:24;6.18;;;5.55;;
18931;SDS011;9598;50.954;3.112;2023-07-08T09:30:32;7.50;;;5.78;;
18931;SDS011;9598;50.954;3.112;2023-07-08T09:35:38;7.55;;;5.82;;
18931;SDS011;9598;50.954;3.112;2023-07-08T09:40:44;7.57;;;6.03;;
18931;SDS011;9598;50.954;3.112;2023-07-08T09:45:50;7.93;;;5.60;;
18931;SDS011;9598;50.954;3.112;2023-07-08T09:50:54;6.82;;;6.03;;
18931;SDS011;9598;50.954;3.112;2023-07-08T09:55:58;8.73;;;6.50;;
18931;SDS011;9598;50.954;3.112;2023-07-08T10:01:08;7.00;;;6.00;;
18931;SDS011;9598;50.954;3.112;2023-07-08T10:06:14;8.02;;;6.03;;
18931;SDS011;9598;50.954;3.112;2023-07-08T10:11:20;6.82;;;5.82;;
18931;SDS011;9598;50.954;3.112;2023-07-08T10:16:28;7.75;;;6.72;;
18931;SDS011;9598;50.954;3.112;2023-07-08T10:21:34;6.75;;;6.03;;
18931;SDS011;9598;50.954;3.112;2023-07-08T10:26:41;6.80;;;5.70;;
18931;SDS011;9598;50.954;3.112;2023-07-08T10:31:48;7.05;;;5.72;;
18931;SDS011;9598;50.954;3.112;2023-07-08T10:36:58;6.13;;;5.55;;
18931;SDS011;9598;50.954;3.112;2023-07-08T10:42:11;5.85;;;5.10;;
18931;SDS011;9598;50.954;3.112;2023-07-08T10:47:27;7.18;;;5.15;;
18931;SDS011;9598;50.954;3.112;2023-07-08T10:52:44;6.72;;;5.13;;
18931;SDS011;9598;50.954;3.112;2023-07-08T10:58:11;5.18;;;4.57;;
18931;SDS011;9598;50.954;3.112;2023-07-08T11:03:40;8.02;;;5.22;;
18931;SDS011;9598;50.954;3.112;2023-07-08T11:09:01;5.68;;;5.03;;
18931;SDS011;9598;50.954;3.112;2023-07-08T11:14:08;5.85;;;5.18;;
18931;SDS011;9598;50.954;3.112;2023-07-08T11:19:18;7.32;;;5.30;;
18931;SDS011;9598;50.954;3.112;2023-07-08T11:24:28;7.28;;;5.25;;
18931;SDS011;9598;50.954;3.112;2023-07-08T11:29:36;7.82;;;5.32;;
18931;SDS011;9598;50.954;3.112;2023-07-08T11:34:43;5.70;;;5.10;;
18931;SDS011;9598;50.954;3.112;2023-07-08T11:39:53;6.93;;;5.25;;
18931;SDS011;9598;50.954;3.112;2023-07-08T11:44:58;6.93;;;5.30;;
18931;SDS011;9598;50.954;3.112;2023-07-08T11:50:03;8.38;;;5.32;;
18931;SDS011;9598;50.954;3.112;2023-07-08T11:55:13;8.60;;;6.15;;
18931;SDS011;9598;50.954;3.112;2023-07-08T12:00:22;6.90;;;5.40;;
18931;SDS011;9598;50.954;3.112;2023-07-08T12:05:31;5.97;;;5.30;;
18931;SDS011;9598;50.954;3.112;2023-07-08T12:10:36;7.07;;;5.47;;
18931;SDS011;9598;50.954;3.112;2023-07-08T12:15:40;7.47;;;5.78;;
18931;SDS011;9598;50.954;3.112;2023-07-08T12:20:45;8.50;;;5.68;;
18931;SDS011;9598;50.954;3.112;2023-07-08T12:25:49;8.88;;;5.93;;
18931;SDS011;9598;50.954;3.112;2023-07-08T12:30:53;9.27;;;5.78;;
18931;SDS011;9598;50.954;3.112;2023-07-08T12:35:58;6.97;;;5.78;;
18931;SDS011;9598;50.954;3.112;2023-07-08T12:41:05;6.68;;;6.03;;
18931;SDS011;9598;50.954;3.112;2023-07-08T12:46:12;7.60;;;6.03;;
18931;SDS011;9598;50.954;3.112;2023-07-08T12:51:17;6.68;;;6.03;;
18931;SDS011;9598;50.954;3.112;2023-07-08T12:56:22;6.75;;;6.13;;
18931;SDS011;9598;50.954;3.112;2023-07-08T13:01:26;7.68;;;6.55;;
18931;SDS011;9598;50.954;3.112;2023-07-08T13:06:33;11.90;;;7.75;;
18931;SDS011;9598;50.954;3.112;2023-07-08T13:11:36;8.25;;;6.25;;
18931;SDS011;9598;50.954;3.112;2023-07-08T13:16:38;7.20;;;5.40;;
18931;SDS011;9598;50.954;3.112;2023-07-08T13:21:42;6.75;;;5.28;;
18931;SDS011;9598;50.954;3.112;2023-07-08T13:26:46;6.57;;;5.13;;
18931;SDS011;9598;50.954;3.112;2023-07-08T13:31:53;5.78;;;5.28;;
18931;SDS011;9598;50.954;3.112;2023-07-08T13:36:59;7.38;;;5.13;;
18931;SDS011;9598;50.954;3.112;2023-07-08T13:42:02;7.72;;;6.53;;
18931;SDS011;9598;50.954;3.112;2023-07-08T13:47:17;7.68;;;5.18;;
18931;SDS011;9598;50.954;3.112;2023-07-08T13:52:23;6.60;;;5.50;;
18931;SDS011;9598;50.954;3.112;2023-07-08T13:57:29;5.20;;;4.68;;
18931;SDS011;9598;50.954;3.112;2023-07-08T14:02:34;7.30;;;5.18;;
18931;SDS011;9598;50.954;3.112;2023-07-08T14:07:37;8.15;;;5.00;;
18931;SDS011;9598;50.954;3.112;2023-07-08T14:12:40;6.85;;;5.55;;
18931;SDS011;9598;50.954;3.112;2023-07-08T14:17:42;6.07;;;5.38;;
18931;SDS011;9598;50.954;3.112;2023-07-08T14:22:45;7.72;;;5.30;;
18931;SDS011;9598;50.954;3.112;2023-07-08T14:27:47;7.50;;;5.50;;
18931;SDS011;9598;50.954;3.112;2023-07-08T14:32:49;6.90;;;5.90;;
18931;SDS011;9598;50.954;3.112;2023-07-08T14:37:53;7.22;;;5.10;;
18931;SDS011;9598;50.954;3.112;2023-07-08T14:42:57;6.78;;;5.63;;
18931;SDS011;9598;50.954;3.112;2023-07-08T14:48:01;6.85;;;6.07;;
18931;SDS011;9598;50.954;3.112;2023-07-08T14:53:07;6.35;;;5.75;;
18931;SDS011;9598;50.954;3.112;2023-07-08T14:58:09;6.38;;;4.68;;
18931;SDS011;9598;50.954;3.112;2023-07-08T15:03:21;7.38;;;5.93;;
18931;SDS011;9598;50.954;3.112;2023-07-08T15:08:25;9.00;;;5.53;;
18931;SDS011;9598;50.954;3.112;2023-07-08T15:13:27;7.15;;;5.65;;
18931;SDS011;9598;50.954;3.112;2023-07-08T15:18:31;6.30;;;5.68;;
18931;SDS011;9598;50.954;3.112;2023-07-08T15:23:35;6.90;;;5.97;;
18931;SDS011;9598;50.954;3.112;2023-07-08T15:28:39;7.18;;;5.70;;
18931;SDS011;9598;50.954;3.112;2023-07-08T15:33:47;6.15;;;5.32;;
18931;SDS011;9598;50.954;3.112;2023-07-08T15:38:51;7.55;;;5.78;;
18931;SDS011;9598;50.954;3.112;2023-07-08T15:43:53;6.63;;;5.60;;
18931;SDS011;9598;50.954;3.112;2023-07-08T15:48:56;5.90;;;5.30;;
18931;SDS011;9598;50.954;3.112;2023-07-08T15:54:00;6.50;;;5.80;;
18931;SDS011;9598;50.954;3.112;2023-07-08T15:59:02;6.43;;;5.80;;
18931;SDS011;9598;50.954;3.112;2023-07-08T16:04:05;6.53;;;5.88;;
18931;SDS011;9598;50.954;3.112;2023-07-08T16:09:14;7.35;;;6.07;;
18931;SDS011;9598;50.954;3.112;2023-07-08T16:14:16;6.30;;;5.70;;
18931;SDS011;9598;50.954;3.112;2023-07-08T16:19:20;5.95;;;5.10;;
18931;SDS011;9598;50.954;3.112;2023-07-08T16:24:23;6.72;;;6.20;;
18931;SDS011;9598;50.954;3.112;2023-07-08T16:29:25;6.13;;;5.63;;
18931;SDS011;9598;50.954;3.112;2023-07-08T16:34:29;6.75;;;5.95;;
18931;SDS011;9598;50.954;3.112;2023-07-08T16:39:32;7.00;;;6.30;;
18931;SDS011;9598;50.954;3.112;2023-07-08T16:44:34;8.38;;;6.28;;
18931;SDS011;9598;50.954;3.112;2023-07-08T16:49:36;8.05;;;7.30;;
18931;SDS011;9598;50.954;3.112;2023-07-08T16:54:39;9.70;;;7.70;;
18931;SDS011;9598;50.954;3.112;2023-07-08T16:59:42;7.50;;;5.93;;
18931;SDS011;9598;50.954;3.112;2023-07-08T17:04:44;8.50;;;6.05;;
18931;SDS011;9598;50.954;3.112;2023-07-08T17:09:49;6.40;;;5.80;;
18931;SDS011;9598;50.954;3.112;2023-07-08T17:14:51;7.93;;;6.38;;
18931;SDS011;9598;50.954;3.112;2023-07-08T17:19:53;8.00;;;6.32;;
18931;SDS011;9598;50.954;3.112;2023-07-08T17:24:58;9.68;;;6.78;;
18931;SDS011;9598;50.954;3.112;2023-07-08T17:30:00;9.32;;;7.10;;
18931;SDS011;9598;50.954;3.112;2023-07-08T17:35:02;8.70;;;7.90;;
18931;SDS011;9598;50.954;3.112;2023-07-08T17:40:07;8.05;;;7.25;;
18931;SDS011;9598;50.954;3.112;2023-07-08T17:45:16;8.68;;;6.55;;
18931;SDS011;9598;50.954;3.112;2023-07-08T17:50:20;7.78;;;7.07;;
18931;SDS011;9598;50.954;3.112;2023-07-08T17:55:25;7.78;;;7.07;;
18931;SDS011;9598;50.954;3.112;2023-07-08T18:00:28;9.20;;;6.82;;
18931;SDS011;9598;50.954;3.112;2023-07-08T18:05:30;10.15;;;8.73;;
18931;SDS011;9598;50.954;3.112;2023-07-08T18:10:34;11.55;;;9.35;;
18931;SDS011;9598;50.954;3.112;2023-07-08T18:15:37;12.10;;;10.48;;
18931;SDS011;9598;50.954;3.112;2023-07-08T18:20:43;13.90;;;12.50;;
18931;SDS011;9598;50.954;3.112;2023-07-08T18:25:51;17.77;;;13.88;;
18931;SDS011;9598;50.954;3.112;2023-07-08T18:30:54;15.15;;;12.48;;
18931;SDS011;9598;50.954;3.112;2023-07-08T18:35:56;13.60;;;12.30;;
18931;SDS011;9598;50.954;3.112;2023-07-08T18:40:59;14.45;;;12.70;;
18931;SDS011;9598;50.954;3.112;2023-07-08T18:46:01;13.48;;;12.13;;
18931;SDS011;9598;50.954;3.112;2023-07-08T18:51:08;14.38;;;12.93;;
18931;SDS011;9598;50.954;3.112;2023-07-08T18:56:15;14.45;;;12.88;;
18931;SDS011;9598;50.954;3.112;2023-07-08T19:01:20;16.55;;;14.60;;
18931;SDS011;9598;50.954;3.112;2023-07-08T19:06:24;17.55;;;15.43;;
18931;SDS011;9598;50.954;3.112;2023-07-08T19:11:28;15.82;;;13.25;;
18931;SDS011;9598;50.954;3.112;2023-07-08T19:16:31;14.88;;;13.32;;
18931;SDS011;9598;50.954;3.112;2023-07-08T19:21:33;16.02;;;14.48;;
18931;SDS011;9598;50.954;3.112;2023-07-08T19:26:37;16.88;;;15.27;;
18931;SDS011;9598;50.954;3.112;2023-07-08T19:31:39;15.77;;;14.38;;
18931;SDS011;9598;50.954;3.112;2023-07-08T19:36:45;15.68;;;14.18;;
18931;SDS011;9598;50.954;3.112;2023-07-08T19:41:50;15.27;;;13.68;;
18931;SDS011;9598;50.954;3.112;2023-07-08T19:46:53;14.45;;;13.07;;
18931;SDS011;9598;50.954;3.112;2023-07-08T19:51:56;14.60;;;12.35;;
18931;SDS011;9598;50.954;3.112;2023-07-08T19:57:00;14.57;;;13.18;;
18931;SDS011;9598;50.954;3.112;2023-07-08T20:02:11;14.00;;;12.60;;
18931;SDS011;9598;50.954;3.112;2023-07-08T20:07:14;15.02;;;13.63;;
18931;SDS011;9598;50.954;3.112;2023-07-08T20:12:17;16.17;;;14.57;;
18931;SDS011;9598;50.954;3.112;2023-07-08T20:17:20;16.33;;;14.55;;
18931;SDS011;9598;50.954;3.112;2023-07-08T20:22:22;16.27;;;14.85;;
18931;SDS011;9598;50.954;3.112;2023-07-08T20:27:25;16.60;;;14.90;;
18931;SDS011;9598;50.954;3.112;2023-07-08T20:32:29;16.25;;;14.55;;
18931;SDS011;9598;50.954;3.112;2023-07-08T20:37:31;16.35;;;14.65;;
18931;SDS011;9598;50.954;3.112;2023-07-08T20:42:35;15.13;;;13.52;;
18931;SDS011;9598;50.954;3.112;2023-07-08T20:47:38;13.75;;;12.48;;
18931;SDS011;9598;50.954;3.112;2023-07-08T20:52:43;14.07;;;12.77;;
18931;SDS011;9598;50.954;3.112;2023-07-08T20:57:48;16.80;;;15.02;;
18931;SDS011;9598;50.954;3.112;2023-07-08T21:02:50;18.48;;;15.60;;
18931;SDS011;9598;50.954;3.112;2023-07-08T21:07:53;15.52;;;13.77;;
18931;SDS011;9598;50.954;3.112;2023-07-08T21:12:58;15.90;;;14.25;;
18931;SDS011;9598;50.954;3.112;2023-07-08T21:18:00;14.95;;;13.55;;
18931;SDS011;9598;50.954;3.112;2023-07-08T21:23:05;14.55;;;13.25;;
18931;SDS011;9598;50.954;3.112;2023-07-08T21:28:10;14.63;;;13.20;;
18931;SDS011;9598;50.954;3.112;2023-07-08T21:33:25;15.70;;;14.20;;
18931;SDS011;9598;50.954;3.112;2023-07-08T21:38:27;15.50;;;13.88;;
18931;SDS011;9598;50.954;3.112;2023-07-08T21:43:31;15.25;;;13.77;;
18931;SDS011;9598;50.954;3.112;2023-07-08T21:48:33;18.90;;;16.98;;
18931;SDS011;9598;50.954;3.112;2023-07-08T21:53:35;26.27;;;23.63;;
18931;SDS011;9598;50.954;3.112;2023-07-08T21:58:39;28.15;;;25.52;;
18931;SDS011;9598;50.954;3.112;2023-07-08T22:03:42;26.80;;;24.15;;
18931;SDS011;9598;50.954;3.112;2023-07-08T22:08:43;27.63;;;25.08;;
18931;SDS011;9598;50.954;3.112;2023-07-08T22:13:47;30.67;;;27.70;;
18931;SDS011;9598;50.954;3.112;2023-07-08T22:18:50;28.83;;;25.98;;
18931;SDS011;9598;50.954;3.112;2023-07-08T22:23:53;28.35;;;25.55;;
18931;SDS011;9598;50.954;3.112;2023-07-08T22:28:57;28.13;;;25.52;;
18931;SDS011;9598;50.954;3.112;2023-07-08T22:33:59;29.40;;;26.63;;
18931;SDS011;9598;50.954;3.112;2023-07-08T22:39:03;34.38;;;30.85;;
18931;SDS011;9598;50.954;3.112;2023-07-08T22:44:08;32.55;;;29.45;;
18931;SDS011;9598;50.954;3.112;2023-07-08T22:49:11;35.25;;;31.88;;
18931;SDS011;9598;50.954;3.112;2023-07-08T22:54:23;37.40;;;33.97;;
18931;SDS011;9598;50.954;3.112;2023-07-08T22:59:29;41.20;;;37.45;;
18931;SDS011;9598;50.954;3.112;2023-07-08T23:04:31;40.38;;;36.67;;
18931;SDS011;9598;50.954;3.112;2023-07-08T23:09:33;41.35;;;37.55;;
18931;SDS011;9598;50.954;3.112;2023-07-08T23:14:37;41.83;;;37.95;;
18931;SDS011;9598;50.954;3.112;2023-07-08T23:19:39;41.90;;;38.05;;
18931;SDS011;9598;50.954;3.112;2023-07-08T23:24:41;42.47;;;38.22;;
18931;SDS011;9598;50.954;3.112;2023-07-08T23:29:44;42.47;;;38.58;;
18931;SDS011;9598;50.954;3.112;2023-07-08T23:34:46;41.13;;;37.42;;
18931;SDS011;9598;50.954;3.112;2023-07-08T23:39:48;41.20;;;37.53;;
18931;SDS011;9598;50.954;3.112;2023-07-08T23:44:51;40.45;;;36.83;;
18931;SDS011;9598;50.954;3.112;2023-07-08T23:49:54;42.17;;;38.38;;
18931;SDS011;9598;50.954;3.112;2023-07-08T23:54:56;38.33;;;34.92;;
